Time;durP1;ratioP1;P1;durP2;ratioP2;P2;SDS_P1;SDS_P2;PMS_P1;PMS_P2;Temp;Humidity;BMP_temperature;BMP_pressure;BME280_temperature;BME280_humidity;BME280_pressure;Samples;Min_cycle;Max_cycle;Signal;HPM_P1;HPM_P2
2021/07/23 00:00:53;;;;;;;7.72;7.03;;;26.60;77.40;;;;;;5043497;28;20402;-72
2021/07/23 00:03:19;;;;;;;7.80;6.25;;;26.50;77.40;;;;;;5033155;28;20040;-72
2021/07/23 00:05:45;;;;;;;7.85;7.07;;;26.60;77.40;;;;;;5037187;28;20060;-71
2021/07/23 00:08:11;;;;;;;8.68;7.32;;;26.50;76.90;;;;;;5048844;28;20034;-72
2021/07/23 00:10:36;;;;;;;9.70;6.63;;;26.60;76.60;;;;;;5031100;28;20041;-72
2021/07/23 00:13:02;;;;;;;10.68;6.90;;;26.70;76.30;;;;;;5034098;28;20552;-71
2021/07/23 00:15:28;;;;;;;7.07;6.38;;;26.70;76.10;;;;;;5029628;28;20514;-72
2021/07/23 00:17:53;;;;;;;8.77;6.88;;;26.60;76.40;;;;;;5034804;28;20049;-71
2021/07/23 00:20:19;;;;;;;7.25;6.15;;;26.50;76.20;;;;;;5027536;28;20498;-72
2021/07/23 00:22:45;;;;;;;12.60;6.50;;;26.60;76.10;;;;;;5046531;28;20055;-72
2021/07/23 00:25:11;;;;;;;7.78;6.47;;;26.70;75.30;;;;;;5026544;28;20580;-72
2021/07/23 00:27:36;;;;;;;9.25;6.93;;;26.60;74.70;;;;;;5005246;28;20411;-72
2021/07/23 00:30:03;;;;;;;6.30;5.70;;;26.60;74.80;;;;;;5030933;28;20044;-71
2021/07/23 00:32:29;;;;;;;6.50;5.60;;;26.80;73.90;;;;;;5034796;28;20033;-72
2021/07/23 00:34:55;;;;;;;8.23;6.78;;;26.80;74.20;;;;;;5039920;28;20033;-70
2021/07/23 00:37:20;;;;;;;7.00;6.30;;;26.80;73.70;;;;;;5022828;28;20495;-72
2021/07/23 00:39:46;;;;;;;7.60;6.72;;;26.60;74.20;;;;;;5034523;28;20174;-72
2021/07/23 00:42:11;;;;;;;6.50;5.82;;;26.60;74.10;;;;;;5020500;28;20060;-71
2021/07/23 00:44:38;;;;;;;6.88;5.60;;;26.40;74.20;;;;;;5025345;28;20045;-71
2021/07/23 00:47:04;;;;;;;7.68;6.25;;;26.30;74.60;;;;;;5015579;28;20041;-71
2021/07/23 00:50:07;;;;;;;5.90;5.13;;;26.20;74.50;;;;;;5043019;28;20525;-72
2021/07/23 00:52:33;;;;;;;6.43;5.68;;;26.40;74.40;;;;;;4985178;28;20046;-72
2021/07/23 00:55:00;;;;;;;6.50;5.78;;;26.40;74.10;;;;;;5020098;28;20040;-73
2021/07/23 00:57:26;;;;;;;7.75;5.22;;;26.30;73.60;;;;;;5005389;28;20029;-72
2021/07/23 00:59:52;;;;;;;6.07;5.53;;;26.20;74.30;;;;;;5043821;28;20091;-72
2021/07/23 01:02:18;;;;;;;7.72;5.25;;;26.20;75.30;;;;;;5031363;28;20040;-72
2021/07/23 01:04:45;;;;;;;6.03;5.10;;;26.30;74.70;;;;;;5026043;28;20119;-72
2021/07/23 01:07:12;;;;;;;5.53;4.70;;;26.20;74.60;;;;;;5045753;28;20041;-72
2021/07/23 01:09:38;;;;;;;5.65;5.05;;;26.40;74.80;;;;;;5033335;28;20036;-72
2021/07/23 01:12:05;;;;;;;6.07;5.10;;;26.20;74.70;;;;;;5040592;28;20041;-72
2021/07/23 01:14:32;;;;;;;6.20;5.47;;;26.20;74.80;;;;;;5033556;28;20122;-73
2021/07/23 01:16:58;;;;;;;5.60;5.10;;;26.30;75.20;;;;;;5038616;28;20389;-72
2021/07/23 01:19:26;;;;;;;6.40;4.55;;;26.20;74.90;;;;;;5021859;28;20049;-72
2021/07/23 01:21:56;;;;;;;6.38;5.78;;;26.20;75.60;;;;;;5036854;28;20040;-72
2021/07/23 01:24:22;;;;;;;5.65;5.15;;;26.00;76.10;;;;;;5059727;28;20116;-72
2021/07/23 01:26:52;;;;;;;7.72;5.07;;;26.00;76.40;;;;;;5025378;28;20573;-72
2021/07/23 01:29:18;;;;;;;8.77;5.30;;;25.90;77.00;;;;;;5027880;28;20480;-72
2021/07/23 01:31:44;;;;;;;5.82;5.22;;;25.70;77.60;;;;;;5049313;28;20092;-72
2021/07/23 01:34:09;;;;;;;6.25;5.25;;;25.50;79.60;;;;;;5042171;28;20037;-72
2021/07/23 01:36:35;;;;;;;6.20;5.60;;;25.60;79.30;;;;;;5054136;28;20037;-72
2021/07/23 01:39:01;;;;;;;5.10;4.60;;;25.50;79.10;;;;;;5045820;28;20036;-73
2021/07/23 01:41:28;;;;;;;8.00;4.95;;;25.50;79.10;;;;;;5039979;28;20061;-72
2021/07/23 01:43:53;;;;;;;6.07;5.32;;;25.40;79.90;;;;;;5035152;28;20087;-72
2021/07/23 01:46:19;;;;;;;5.45;4.95;;;25.40;80.10;;;;;;5031263;28;20533;-72
2021/07/23 01:48:45;;;;;;;5.95;5.30;;;25.30;80.30;;;;;;5042539;28;20044;-72
2021/07/23 01:51:10;;;;;;;9.27;5.13;;;25.50;80.10;;;;;;5035597;28;20059;-72
2021/07/23 01:53:36;;;;;;;7.07;5.15;;;25.50;79.90;;;;;;5021168;28;20434;-72
2021/07/23 01:56:01;;;;;;;5.88;4.75;;;25.50;80.50;;;;;;5028614;28;20049;-73
2021/07/23 01:58:31;;;;;;;7.82;5.35;;;25.60;79.90;;;;;;5027633;28;20124;-73
2021/07/23 02:00:57;;;;;;;5.65;4.60;;;25.50;80.10;;;;;;5032100;28;20044;-73
2021/07/23 02:03:24;;;;;;;6.97;4.72;;;25.40;80.60;;;;;;5045825;28;20079;-73
2021/07/23 02:05:50;;;;;;;5.25;4.75;;;25.50;80.30;;;;;;5041127;28;20135;-73
2021/07/23 02:08:15;;;;;;;5.70;5.00;;;25.50;80.30;;;;;;5022176;28;20144;-73
2021/07/23 02:10:41;;;;;;;8.57;4.40;;;25.40;80.40;;;;;;5020793;28;20048;-73
2021/07/23 02:13:06;;;;;;;5.60;5.05;;;25.30;81.70;;;;;;5033181;28;20116;-72
2021/07/23 02:15:32;;;;;;;4.95;4.03;;;25.30;81.50;;;;;;5038766;28;20091;-72
2021/07/23 02:17:58;;;;;;;5.63;3.90;;;25.30;81.30;;;;;;5027485;28;20554;-72
2021/07/23 02:20:23;;;;;;;5.03;4.53;;;25.30;81.50;;;;;;5041667;28;20131;-73
2021/07/23 02:22:49;;;;;;;7.63;5.18;;;25.20;82.90;;;;;;5039238;28;20376;-73
2021/07/23 02:25:15;;;;;;;5.38;4.72;;;25.30;82.50;;;;;;5031649;28;20037;-72
2021/07/23 02:27:41;;;;;;;5.10;4.10;;;25.20;82.20;;;;;;5040134;28;20449;-72
2021/07/23 02:30:07;;;;;;;5.43;5.00;;;25.30;82.20;;;;;;5033428;28;20090;-73
2021/07/23 02:32:33;;;;;;;5.80;5.20;;;25.30;82.10;;;;;;5031442;28;20117;-72
2021/07/23 02:34:58;;;;;;;5.13;4.68;;;25.20;82.90;;;;;;5021252;28;20116;-73
2021/07/23 02:37:24;;;;;;;5.32;4.82;;;25.30;82.60;;;;;;5038658;28;20045;-72
2021/07/23 02:39:49;;;;;;;5.65;4.43;;;25.30;82.20;;;;;;5029253;28;20047;-73
2021/07/23 02:42:15;;;;;;;4.82;4.30;;;25.30;82.70;;;;;;5023847;28;20045;-72
2021/07/23 02:44:40;;;;;;;5.38;4.85;;;25.40;82.00;;;;;;5048603;28;20129;-72
2021/07/23 02:47:06;;;;;;;4.72;4.32;;;25.30;82.00;;;;;;5042032;28;20044;-72
2021/07/23 02:49:32;;;;;;;5.97;5.10;;;25.40;81.50;;;;;;5044465;28;20047;-72
2021/07/23 02:51:57;;;;;;;6.10;4.57;;;25.30;82.00;;;;;;5010293;28;20093;-70
2021/07/23 02:54:23;;;;;;;5.75;4.57;;;25.30;81.80;;;;;;5042350;28;20502;-72
2021/07/23 02:56:48;;;;;;;4.90;4.10;;;25.40;81.50;;;;;;5036785;28;20045;-72
2021/07/23 02:59:14;;;;;;;5.10;4.40;;;25.10;82.70;;;;;;5037270;28;20042;-72
2021/07/23 03:01:40;;;;;;;5.60;4.70;;;25.10;83.10;;;;;;5031913;28;20037;-72
2021/07/23 03:04:05;;;;;;;5.00;4.45;;;25.20;82.20;;;;;;5041315;28;20047;-72
2021/07/23 03:06:31;;;;;;;4.97;4.57;;;25.20;82.20;;;;;;5019932;28;20057;-72
2021/07/23 03:08:57;;;;;;;4.20;3.78;;;25.20;82.40;;;;;;5034075;28;20124;-71
2021/07/23 03:11:22;;;;;;;10.57;5.07;;;25.30;82.00;;;;;;5023028;28;20046;-72
2021/07/23 03:13:48;;;;;;;5.82;4.47;;;25.30;81.40;;;;;;5031388;28;20026;-72
2021/07/23 03:16:16;;;;;;;5.35;4.85;;;25.40;81.40;;;;;;5024633;28;20045;-72
2021/07/23 03:18:43;;;;;;;7.43;5.25;;;25.50;81.10;;;;;;5022007;28;20037;-71
2021/07/23 03:21:09;;;;;;;5.82;4.55;;;25.40;81.70;;;;;;5030790;28;20446;-72
2021/07/23 03:23:35;;;;;;;6.55;4.35;;;25.30;81.80;;;;;;5039544;28;20045;-72
2021/07/23 03:26:06;;;;;;;7.57;4.60;;;25.30;82.60;;;;;;5052004;28;20561;-72
2021/07/23 03:28:31;;;;;;;6.70;5.15;;;25.30;82.40;;;;;;5037840;28;20041;-72
2021/07/23 03:30:57;;;;;;;5.28;4.30;;;25.30;82.40;;;;;;5027950;28;20045;-72
2021/07/23 03:33:22;;;;;;;5.25;4.75;;;25.30;83.10;;;;;;5021542;28;20044;-72
2021/07/23 03:35:48;;;;;;;6.78;4.68;;;25.30;82.50;;;;;;5041275;28;20119;-72
2021/07/23 03:38:13;;;;;;;6.20;5.60;;;25.20;82.60;;;;;;5021547;28;20049;-72
2021/07/23 03:40:39;;;;;;;5.13;3.95;;;25.10;82.80;;;;;;5028915;28;20498;-71
2021/07/23 03:43:04;;;;;;;4.95;4.45;;;25.10;83.20;;;;;;5035644;28;20087;-71
2021/07/23 03:45:30;;;;;;;5.55;4.75;;;25.10;83.40;;;;;;5045352;28;20041;-71
2021/07/23 03:47:56;;;;;;;5.45;4.35;;;25.20;83.70;;;;;;5025536;28;20047;-71
2021/07/23 03:50:21;;;;;;;5.20;4.50;;;25.20;83.10;;;;;;5049425;28;20032;-72
2021/07/23 03:52:47;;;;;;;6.95;4.32;;;25.20;83.20;;;;;;5048141;28;20033;-71
2021/07/23 03:55:12;;;;;;;5.53;4.70;;;25.20;83.00;;;;;;5024429;28;20402;-71
2021/07/23 03:57:39;;;;;;;7.72;4.78;;;25.20;83.40;;;;;;5031982;28;20049;-71
2021/07/23 04:00:07;;;;;;;7.57;5.22;;;25.00;83.90;;;;;;5027729;28;20052;-72
2021/07/23 04:02:32;;;;;;;8.93;4.88;;;24.90;84.90;;;;;;5039403;28;20073;-71
2021/07/23 04:04:58;;;;;;;5.45;4.95;;;25.00;84.40;;;;;;5020970;28;20466;-71
2021/07/23 04:07:23;;;;;;;5.43;4.85;;;25.00;84.70;;;;;;5037645;28;20042;-71
2021/07/23 04:09:49;;;;;;;5.60;5.10;;;24.90;85.40;;;;;;5030158;28;20042;-71
2021/07/23 04:12:15;;;;;;;7.95;5.25;;;24.90;85.40;;;;;;5040187;28;20124;-71
2021/07/23 04:14:40;;;;;;;7.53;4.93;;;24.90;85.60;;;;;;5028858;28;20033;-71
2021/07/23 04:17:15;;;;;;;5.60;4.22;;;24.90;85.50;;;;;;5029353;28;20327;-71
2021/07/23 04:19:41;;;;;;;5.07;4.32;;;25.10;86.70;;;;;;5021680;28;20056;-71
2021/07/23 04:22:07;;;;;;;5.78;5.00;;;25.10;85.00;;;;;;5027241;28;20037;-71
2021/07/23 04:24:32;;;;;;;5.57;4.97;;;25.10;85.60;;;;;;5026948;28;20129;-71
2021/07/23 04:26:58;;;;;;;6.03;4.82;;;25.10;85.20;;;;;;5036876;28;20045;-71
2021/07/23 04:29:24;;;;;;;5.78;5.15;;;25.10;85.40;;;;;;5034549;28;20478;-71
2021/07/23 04:31:50;;;;;;;6.93;5.30;;;25.10;85.50;;;;;;5032217;28;20039;-71
2021/07/23 04:34:15;;;;;;;5.10;4.60;;;25.10;85.80;;;;;;5047846;28;20502;-71
2021/07/23 04:36:41;;;;;;;5.25;4.75;;;25.10;85.90;;;;;;5040126;28;20486;-72
2021/07/23 04:39:07;;;;;;;5.22;4.70;;;25.10;85.70;;;;;;5036701;28;20067;-72
2021/07/23 04:41:33;;;;;;;6.18;5.07;;;25.10;85.70;;;;;;5029324;28;20034;-72
2021/07/23 04:43:58;;;;;;;7.82;5.47;;;25.10;86.20;;;;;;5048375;28;20041;-72
2021/07/23 04:46:33;;;;;;;6.53;4.82;;;25.10;86.00;;;;;;5023654;28;20067;-71
2021/07/23 04:48:58;;;;;;;5.63;4.97;;;25.20;86.30;;;;;;5030630;28;20410;-71
2021/07/23 04:51:24;;;;;;;5.95;5.00;;;25.20;85.50;;;;;;5030633;28;20033;-72
2021/07/23 04:53:50;;;;;;;6.30;4.22;;;25.10;85.50;;;;;;5030553;28;20498;-72
2021/07/23 04:56:16;;;;;;;6.60;5.13;;;25.30;85.30;;;;;;5025958;28;20060;-72
2021/07/23 04:58:41;;;;;;;5.57;5.00;;;25.20;85.50;;;;;;5027518;28;20562;-72
2021/07/23 05:01:07;;;;;;;6.38;5.50;;;25.30;85.10;;;;;;5024119;28;20045;-71
2021/07/23 05:03:36;;;;;;;5.95;5.38;;;25.30;85.30;;;;;;5023030;28;20038;-72
2021/07/23 05:06:07;;;;;;;6.10;4.80;;;25.30;85.40;;;;;;5024337;28;20133;-72
2021/07/23 05:08:37;;;;;;;24.23;8.45;;;25.20;86.10;;;;;;5030003;28;20037;-72
2021/07/23 05:11:08;;;;;;;6.10;5.35;;;25.10;86.50;;;;;;5041308;28;20041;-72
2021/07/23 05:13:35;;;;;;;8.68;6.50;;;25.10;86.90;;;;;;5037839;28;20045;-72
2021/07/23 05:16:02;;;;;;;7.80;5.43;;;25.20;86.30;;;;;;5025296;28;20048;-71
2021/07/23 05:18:29;;;;;;;6.57;4.85;;;25.20;86.60;;;;;;5036177;28;20043;-71
2021/07/23 05:20:54;;;;;;;9.45;5.35;;;25.30;86.00;;;;;;5038929;28;20102;-72
2021/07/23 05:23:21;;;;;;;8.15;5.53;;;25.40;85.40;;;;;;5042205;28;20041;-72
2021/07/23 05:25:47;;;;;;;5.97;5.38;;;25.50;85.50;;;;;;5034073;28;20037;-71
2021/07/23 05:28:13;;;;;;;7.03;6.32;;;25.50;85.10;;;;;;5031027;28;20090;-71
2021/07/23 05:30:38;;;;;;;6.88;5.72;;;25.50;85.10;;;;;;5050551;28;20120;-72
2021/07/23 05:33:04;;;;;;;8.93;5.38;;;25.50;85.20;;;;;;5050429;28;20171;-72
2021/07/23 05:35:34;;;;;;;8.75;6.80;;;25.50;84.70;;;;;;5025023;28;20064;-71
2021/07/23 05:38:00;;;;;;;7.28;5.65;;;25.60;85.00;;;;;;5039149;28;20482;-72
2021/07/23 05:40:25;;;;;;;9.05;6.43;;;25.50;85.10;;;;;;5034724;28;20087;-71
2021/07/23 05:42:53;;;;;;;6.10;5.50;;;25.50;85.40;;;;;;5038145;28;20032;-72
2021/07/23 05:45:20;;;;;;;10.15;6.13;;;25.50;85.60;;;;;;5042584;28;20034;-73
2021/07/23 05:47:45;;;;;;;7.07;6.28;;;25.50;85.40;;;;;;5021826;28;20111;-72
2021/07/23 05:50:11;;;;;;;9.70;6.13;;;25.60;85.20;;;;;;5038133;28;20072;-73
2021/07/23 05:52:37;;;;;;;8.45;6.07;;;25.60;86.10;;;;;;5016089;28;20132;-73
2021/07/23 05:55:03;;;;;;;9.80;6.70;;;25.60;85.30;;;;;;5029974;28;20038;-72
2021/07/23 05:57:28;;;;;;;8.02;6.72;;;25.60;85.60;;;;;;5033491;28;20535;-73
2021/07/23 05:59:54;;;;;;;9.40;6.85;;;25.60;85.50;;;;;;5008239;28;20037;-73
2021/07/23 06:02:20;;;;;;;8.10;6.88;;;25.60;85.40;;;;;;5024041;28;20090;-72
2021/07/23 06:04:45;;;;;;;16.67;9.57;;;25.70;85.40;;;;;;5040850;28;20052;-73
2021/07/23 06:07:14;;;;;;;11.23;8.32;;;25.70;85.20;;;;;;5024461;28;20510;-73
2021/07/23 06:09:40;;;;;;;15.13;11.15;;;25.90;85.50;;;;;;5030365;28;20395;-73
2021/07/23 06:12:06;;;;;;;9.05;7.00;;;25.90;85.90;;;;;;5028809;28;20044;-73
2021/07/23 06:14:31;;;;;;;12.68;7.30;;;25.80;85.50;;;;;;5035557;28;20114;-72
2021/07/23 06:16:58;;;;;;;11.20;7.00;;;25.90;85.80;;;;;;5041291;28;20517;-72
2021/07/23 06:19:24;;;;;;;12.05;6.97;;;25.90;86.10;;;;;;5022219;28;20483;-73
2021/07/23 06:21:50;;;;;;;11.55;6.82;;;25.90;85.40;;;;;;5024193;28;20045;-73
2021/07/23 06:24:15;;;;;;;8.52;6.43;;;25.90;85.40;;;;;;5022225;28;20044;-73
2021/07/23 06:26:41;;;;;;;8.00;6.85;;;26.00;85.10;;;;;;5037122;28;20040;-73
2021/07/23 06:29:07;;;;;;;11.68;7.38;;;26.00;85.00;;;;;;5030416;28;20176;-73
2021/07/23 06:31:34;;;;;;;9.60;7.28;;;26.00;85.00;;;;;;5039584;28;20037;-73
2021/07/23 06:34:00;;;;;;;8.85;6.75;;;26.00;85.40;;;;;;5025049;28;20240;-72
2021/07/23 06:36:25;;;;;;;9.95;6.63;;;26.00;85.10;;;;;;5030935;28;20493;-69
2021/07/23 06:38:51;;;;;;;11.13;6.25;;;26.10;85.40;;;;;;5038416;28;20037;-71
2021/07/23 06:41:16;;;;;;;11.63;7.18;;;26.00;85.20;;;;;;5034893;28;20037;-72
2021/07/23 06:43:42;;;;;;;9.82;7.15;;;26.00;84.80;;;;;;5046171;28;20076;-72
2021/07/23 06:46:07;;;;;;;12.30;6.82;;;26.10;85.00;;;;;;5023245;28;20099;-71
2021/07/23 06:48:33;;;;;;;10.27;7.47;;;26.10;84.80;;;;;;5041255;28;20044;-72
2021/07/23 06:50:59;;;;;;;8.27;7.28;;;26.30;84.50;;;;;;5040462;28;20033;-71
2021/07/23 06:53:24;;;;;;;10.32;7.28;;;26.20;84.00;;;;;;5038758;28;20040;-71
2021/07/23 06:55:50;;;;;;;8.05;6.80;;;26.20;84.20;;;;;;5036578;28;20037;-71
2021/07/23 06:58:19;;;;;;;12.60;7.03;;;26.30;84.50;;;;;;5051589;28;20029;-71
2021/07/23 07:00:44;;;;;;;8.77;7.05;;;26.20;84.60;;;;;;5028033;28;20179;-71
2021/07/23 07:03:10;;;;;;;8.95;7.40;;;26.30;84.50;;;;;;5035936;28;20124;-71
2021/07/23 07:05:36;;;;;;;21.13;9.25;;;26.30;84.40;;;;;;5035162;28;20048;-72
2021/07/23 07:08:01;;;;;;;12.32;8.52;;;26.30;84.40;;;;;;5030504;28;20045;-71
2021/07/23 07:10:28;;;;;;;12.07;8.45;;;26.30;84.30;;;;;;5034760;28;20084;-71
2021/07/23 07:12:57;;;;;;;8.90;7.13;;;26.30;84.60;;;;;;5024170;28;20057;-72
2021/07/23 07:15:24;;;;;;;10.57;6.97;;;26.40;84.00;;;;;;5030794;28;20058;-72
2021/07/23 07:17:56;;;;;;;10.45;7.32;;;26.40;83.80;;;;;;5035847;28;20073;-72
2021/07/23 07:20:21;;;;;;;12.73;7.90;;;26.50;83.80;;;;;;5039640;28;20065;-72
2021/07/23 07:22:47;;;;;;;8.95;7.43;;;26.70;83.00;;;;;;5025918;28;20482;-72
2021/07/23 07:25:13;;;;;;;10.50;8.55;;;26.70;82.60;;;;;;5035317;28;20053;-72
2021/07/23 07:27:38;;;;;;;9.82;7.88;;;26.70;82.80;;;;;;5022202;28;20053;-72
2021/07/23 07:30:04;;;;;;;10.95;8.05;;;26.80;82.80;;;;;;5028378;28;20124;-70
2021/07/23 07:32:30;;;;;;;9.80;7.55;;;26.70;83.40;;;;;;5028771;28;20053;-72
2021/07/23 07:34:56;;;;;;;8.85;7.95;;;26.90;83.30;;;;;;5050269;28;20025;-72
2021/07/23 07:37:21;;;;;;;14.70;8.18;;;26.90;82.70;;;;;;5044301;28;20036;-72
2021/07/23 07:39:47;;;;;;;16.92;9.40;;;26.90;82.20;;;;;;5047682;28;20065;-71
2021/07/23 07:42:15;;;;;;;14.77;8.93;;;26.90;82.50;;;;;;5032162;28;20042;-72
2021/07/23 07:44:41;;;;;;;10.07;9.05;;;27.00;82.50;;;;;;5032186;28;20037;-73
2021/07/23 07:47:06;;;;;;;17.60;9.82;;;27.00;83.30;;;;;;5034693;28;20411;-73
2021/07/23 07:49:32;;;;;;;12.95;9.18;;;27.00;82.60;;;;;;5029426;28;20033;-73
2021/07/23 07:51:57;;;;;;;11.73;9.52;;;27.10;82.50;;;;;;5034605;28;20541;-71
2021/07/23 07:54:23;;;;;;;10.30;9.27;;;27.10;82.50;;;;;;5042973;28;20510;-71
2021/07/23 07:56:51;;;;;;;11.68;9.70;;;27.10;82.50;;;;;;5044763;28;20045;-72
2021/07/23 07:59:16;;;;;;;10.88;8.30;;;27.10;82.20;;;;;;5021921;28;20065;-73
2021/07/23 08:01:42;;;;;;;13.02;9.10;;;27.40;82.30;;;;;;5041390;28;20052;-73
2021/07/23 08:04:08;;;;;;;12.20;9.43;;;27.30;81.60;;;;;;5035482;28;20099;-73
2021/07/23 08:06:36;;;;;;;15.20;9.68;;;27.30;81.70;;;;;;5033224;28;20061;-73
2021/07/23 08:09:05;;;;;;;10.38;9.27;;;27.40;81.20;;;;;;5031716;28;20055;-73
2021/07/23 08:11:32;;;;;;;15.75;10.02;;;27.40;81.10;;;;;;5030886;28;20395;-73
2021/07/23 08:13:58;;;;;;;10.45;9.27;;;27.50;80.40;;;;;;5029663;28;20047;-70
2021/07/23 08:16:24;;;;;;;12.30;9.05;;;27.80;79.60;;;;;;5038639;28;20041;-73
2021/07/23 08:18:49;;;;;;;12.57;9.77;;;27.90;78.90;;;;;;5060239;28;20119;-73
2021/07/23 08:21:15;;;;;;;12.45;8.32;;;27.80;78.40;;;;;;5048026;28;20791;-73
2021/07/23 08:23:40;;;;;;;10.40;9.40;;;28.10;77.90;;;;;;5039100;28;20102;-73
2021/07/23 08:26:06;;;;;;;10.60;9.68;;;28.20;76.90;;;;;;5038103;28;20041;-73
2021/07/23 08:28:32;;;;;;;11.35;9.07;;;28.20;76.30;;;;;;5029320;28;20057;-73
2021/07/23 08:30:58;;;;;;;10.70;9.10;;;28.20;76.10;;;;;;5026542;28;20040;-73
2021/07/23 08:33:24;;;;;;;12.50;9.23;;;28.20;76.00;;;;;;5026700;28;20041;-70
2021/07/23 08:35:50;;;;;;;11.77;8.90;;;28.20;75.90;;;;;;5023659;28;20033;-71
2021/07/23 08:38:16;;;;;;;10.60;9.13;;;28.20;76.20;;;;;;5024863;28;20115;-70
2021/07/23 08:40:42;;;;;;;14.88;9.45;;;28.10;76.10;;;;;;5027949;28;20034;-71
2021/07/23 08:43:08;;;;;;;35.15;13.35;;;28.00;76.10;;;;;;5032019;28;20056;-71
2021/07/23 08:45:34;;;;;;;32.97;12.40;;;28.10;75.80;;;;;;5041985;28;20053;-71
2021/07/23 08:48:00;;;;;;;20.88;9.95;;;28.20;75.60;;;;;;5029061;28;20068;-72
2021/07/23 08:50:26;;;;;;;16.75;9.30;;;28.30;75.30;;;;;;5030932;28;20413;-68
2021/07/23 08:52:54;;;;;;;14.52;10.57;;;28.40;74.70;;;;;;5024058;28;20033;-72
2021/07/23 08:55:20;;;;;;;10.40;9.40;;;28.50;73.90;;;;;;5028486;28;20043;-72
2021/07/23 08:57:47;;;;;;;17.13;8.48;;;28.50;73.30;;;;;;5036388;28;20047;-72
2021/07/23 09:00:18;;;;;;;12.90;9.25;;;28.50;73.00;;;;;;5035425;28;20091;-73
2021/07/23 09:03:01;;;;;;;8.95;7.70;;;28.50;73.20;;;;;;5028207;28;20037;-73
2021/07/23 09:05:31;;;;;;;10.75;8.10;;;28.60;71.60;;;;;;5026057;28;20044;-71
2021/07/23 09:08:18;;;;;;;22.83;12.80;;;28.50;71.50;;;;;;5026972;28;20475;-74
2021/07/23 09:10:45;;;;;;;11.00;8.80;;;28.60;71.10;;;;;;5031390;28;20061;-74
2021/07/23 09:13:19;;;;;;;10.25;8.27;;;28.70;70.40;;;;;;5043774;28;20091;-73
2021/07/23 09:15:45;;;;;;;9.65;8.68;;;28.70;70.10;;;;;;5041776;28;20512;-73
2021/07/23 09:18:41;;;;;;;8.75;7.88;;;28.80;69.70;;;;;;5029295;28;20053;-73
2021/07/23 09:21:08;;;;;;;8.65;6.55;;;28.80;68.40;;;;;;5013001;28;20044;-71
2021/07/23 09:23:38;;;;;;;17.33;7.75;;;28.90;66.10;;;;;;5027799;28;20044;-72
2021/07/23 09:26:09;;;;;;;10.18;7.78;;;28.90;67.50;;;;;;5024278;28;20050;-74
2021/07/23 09:28:37;;;;;;;8.07;6.53;;;29.00;66.50;;;;;;5022027;28;20479;-73
2021/07/23 09:31:05;;;;;;;8.57;6.88;;;29.00;66.20;;;;;;5025543;28;20037;-73
2021/07/23 09:33:37;;;;;;;7.32;6.47;;;29.00;65.50;;;;;;5044469;28;20489;-73
2021/07/23 09:36:10;;;;;;;16.67;7.13;;;29.10;64.30;;;;;;5037233;28;20033;-75
2021/07/23 09:38:42;;;;;;;7.43;6.50;;;29.10;62.70;;;;;;5042319;28;20048;-73
2021/07/23 09:41:13;;;;;;;7.13;6.35;;;29.20;63.10;;;;;;5027086;28;20045;-73
2021/07/23 09:43:43;;;;;;;9.98;6.93;;;29.20;62.10;;;;;;5025567;28;20033;-73
2021/07/23 09:46:35;;;;;;;9.65;7.15;;;29.20;61.10;;;;;;5032444;28;20041;-74
2021/07/23 09:49:20;;;;;;;9.15;6.53;;;29.20;61.10;;;;;;5035327;28;20079;-73
2021/07/23 09:51:46;;;;;;;8.63;6.70;;;29.30;61.80;;;;;;5024551;28;20526;-73
2021/07/23 09:54:12;;;;;;;8.10;6.00;;;29.30;61.80;;;;;;5043379;28;20455;-73
2021/07/23 09:56:38;;;;;;;7.32;6.38;;;29.30;61.30;;;;;;5029914;28;20033;-74
2021/07/23 09:59:09;;;;;;;8.27;7.28;;;29.40;60.50;;;;;;5028642;28;20120;-75
2021/07/23 10:01:41;;;;;;;9.98;6.38;;;29.50;60.80;;;;;;5029373;28;20117;-73
2021/07/23 10:04:19;;;;;;;8.75;7.18;;;29.60;59.20;;;;;;5027198;28;20156;-73
2021/07/23 10:06:57;;;;;;;17.80;8.18;;;29.60;58.70;;;;;;5033064;28;20045;-73
2021/07/23 10:09:26;;;;;;;9.70;6.68;;;29.80;59.00;;;;;;5026877;28;20490;-73
2021/07/23 10:11:53;;;;;;;6.88;6.28;;;29.70;58.40;;;;;;5030672;28;20039;-74
2021/07/23 10:14:22;;;;;;;9.73;6.03;;;29.70;58.30;;;;;;5038193;28;20037;-73
2021/07/23 10:16:49;;;;;;;9.65;7.10;;;29.90;58.90;;;;;;5043709;28;20041;-73
2021/07/23 10:19:15;;;;;;;7.40;6.68;;;30.00;58.40;;;;;;5028513;28;20133;-73
2021/07/23 10:21:41;;;;;;;11.13;10.05;;;30.10;57.90;;;;;;5031578;28;20471;-73
2021/07/23 10:24:08;;;;;;;8.23;7.43;;;30.30;56.80;;;;;;5037692;28;20041;-73
2021/07/23 10:26:34;;;;;;;8.02;6.63;;;30.30;55.80;;;;;;5038125;28;20057;-73
2021/07/23 10:29:00;;;;;;;9.02;7.13;;;30.40;55.30;;;;;;5037739;28;20052;-72
2021/07/23 10:31:27;;;;;;;7.28;6.65;;;30.40;55.80;;;;;;5029524;28;20087;-73
2021/07/23 10:33:53;;;;;;;8.13;7.03;;;30.30;54.30;;;;;;5013573;28;20040;-74
2021/07/23 10:36:39;;;;;;;7.40;6.57;;;30.40;54.60;;;;;;5039522;28;20048;-74
2021/07/23 10:39:04;;;;;;;7.50;6.68;;;30.40;52.70;;;;;;5000271;28;20087;-73
2021/07/23 10:41:34;;;;;;;7.80;6.38;;;30.70;54.20;;;;;;5029478;28;20434;-73
2021/07/23 10:44:00;;;;;;;10.55;7.07;;;30.70;53.90;;;;;;5027695;28;20076;-73
2021/07/23 10:46:46;;;;;;;8.48;7.75;;;30.90;52.70;;;;;;5034942;28;20052;-73
2021/07/23 10:49:27;;;;;;;7.88;7.07;;;31.00;53.30;;;;;;5004839;28;20056;-74
2021/07/23 10:51:53;;;;;;;7.45;6.10;;;30.90;53.60;;;;;;5043075;28;20453;-75
2021/07/23 10:54:23;;;;;;;7.63;6.90;;;31.10;51.60;;;;;;5031682;28;20037;-72
2021/07/23 10:57:00;;;;;;;8.00;6.95;;;31.00;52.30;;;;;;5043529;28;20040;-73
2021/07/23 10:59:59;;;;;;;7.18;6.47;;;31.10;52.20;;;;;;5023832;28;21198;-73
2021/07/23 11:02:24;;;;;;;7.13;6.18;;;31.40;50.60;;;;;;5010665;28;20525;-74
2021/07/23 11:04:53;;;;;;;7.88;6.90;;;31.20;51.10;;;;;;5034626;28;20044;-73
2021/07/23 11:07:25;;;;;;;8.63;6.97;;;31.30;51.30;;;;;;5046582;28;20490;-72
2021/07/23 11:09:51;;;;;;;9.43;7.28;;;31.60;49.30;;;;;;5027141;28;20128;-73
2021/07/23 11:12:21;;;;;;;7.82;6.55;;;32.20;49.90;;;;;;5033443;28;20122;-73
2021/07/23 11:15:00;;;;;;;8.50;6.72;;;34.20;47.30;;;;;;5037167;28;20050;-73
2021/07/23 11:17:27;;;;;;;7.25;6.38;;;35.70;42.80;;;;;;5025459;28;20103;-72
2021/07/23 11:19:59;;;;;;;9.77;7.68;;;36.40;41.30;;;;;;5032909;28;20363;-72
2021/07/23 11:22:28;;;;;;;8.00;7.10;;;36.40;39.80;;;;;;5031848;28;20037;-72
2021/07/23 11:24:55;;;;;;;8.98;6.65;;;36.10;48.30;;;;;;5045360;28;20037;-73
2021/07/23 11:27:29;;;;;;;8.88;7.05;;;35.80;38.90;;;;;;5041270;28;20114;-70
2021/07/23 11:29:56;;;;;;;9.73;6.78;;;35.60;39.60;;;;;;5026426;28;20444;-72
2021/07/23 11:32:22;;;;;;;7.95;7.15;;;35.10;39.70;;;;;;5028094;28;20059;-72
2021/07/23 11:35:01;;;;;;;8.00;7.15;;;34.80;40.60;;;;;;5026033;28;20495;-74
2021/07/23 11:37:27;;;;;;;7.60;6.90;;;34.90;40.40;;;;;;5024376;28;20499;-73
2021/07/23 11:39:53;;;;;;;7.40;6.53;;;34.90;40.40;;;;;;5036537;28;20036;-73
2021/07/23 11:42:19;;;;;;;8.10;6.70;;;34.90;40.10;;;;;;5046286;28;20482;-74
2021/07/23 11:44:59;;;;;;;7.30;6.57;;;34.90;39.30;;;;;;5035486;28;20044;-74
2021/07/23 11:47:28;;;;;;;7.18;6.47;;;34.90;38.70;;;;;;5041493;28;20474;-73
2021/07/23 11:49:58;;;;;;;7.72;7.03;;;35.10;38.70;;;;;;5041609;28;20120;-73
2021/07/23 11:52:24;;;;;;;9.45;6.95;;;35.40;38.60;;;;;;5024643;28;20037;-74
2021/07/23 11:55:04;;;;;;;7.40;6.78;;;35.70;38.20;;;;;;5026494;28;20040;-73
2021/07/23 11:57:34;;;;;;;9.32;7.30;;;35.80;36.70;;;;;;5021336;28;20042;-72
2021/07/23 12:00:00;;;;;;;8.25;7.45;;;36.10;38.10;;;;;;5027298;28;20053;-74
2021/07/23 12:02:29;;;;;;;7.65;6.70;;;36.50;37.20;;;;;;5028652;28;20083;-74
2021/07/23 12:05:05;;;;;;;7.93;7.13;;;36.70;36.20;;;;;;5037574;28;20029;-74
2021/07/23 12:07:31;;;;;;;11.50;7.68;;;37.40;33.80;;;;;;5036966;28;20053;-74
2021/07/23 12:10:03;;;;;;;8.52;7.63;;;37.60;48.90;;;;;;5029775;28;20120;-67
2021/07/23 12:12:29;;;;;;;11.32;8.15;;;38.40;33.80;;;;;;5044011;28;20041;-75
2021/07/23 12:15:11;;;;;;;8.02;7.25;;;40.20;32.40;;;;;;5036792;28;20543;-75
2021/07/23 12:17:42;;;;;;;8.18;7.53;;;41.00;30.20;;;;;;5002164;28;20037;-74
2021/07/23 12:20:08;;;;;;;9.88;7.60;;;41.40;29.60;;;;;;5037534;28;20068;-74
2021/07/23 12:22:35;;;;;;;13.88;8.55;;;41.70;29.70;;;;;;5029425;28;20038;-74
2021/07/23 12:25:21;;;;;;;8.43;7.75;;;40.90;29.80;;;;;;5039970;28;20509;-74
2021/07/23 12:28:03;;;;;;;15.95;9.13;;;39.20;31.00;;;;;;5032925;28;20054;-73
2021/07/23 12:30:35;;;;;;;8.63;7.83;;;38.00;31.80;;;;;;5027931;28;20045;-73
2021/07/23 12:33:13;;;;;;;9.60;8.15;;;37.70;31.80;;;;;;5025200;28;20268;-73
2021/07/23 12:35:42;;;;;;;8.57;7.88;;;38.00;31.40;;;;;;5060912;28;20033;-73
2021/07/23 12:38:09;;;;;;;8.43;7.82;;;38.20;31.50;;;;;;5066755;28;20386;-74
2021/07/23 12:40:50;;;;;;;8.50;7.70;;;38.10;31.60;;;;;;5044539;28;20041;-74
2021/07/23 12:43:18;;;;;;;11.25;8.18;;;37.80;31.20;;;;;;5034336;28;20041;-75
2021/07/23 12:45:45;;;;;;;11.88;9.23;;;38.60;31.50;;;;;;5025243;28;20124;-74